createdAt,value
2023-01-12T00:01:45.001Z,100.00
2023-01-12T00:04:21.653Z,100.00
2023-01-12T00:06:59.251Z,100.00
2023-01-12T00:09:44.026Z,100.00
2023-01-12T00:12:22.707Z,100.00
2023-01-12T00:15:06.116Z,100.00
2023-01-12T00:17:39.708Z,100.00
2023-01-12T00:20:25.650Z,100.00
2023-01-12T00:23:08.277Z,100.00
2023-01-12T00:25:56.929Z,100.00
2023-01-12T00:28:32.753Z,100.00
2023-01-12T00:31:16.961Z,100.00
2023-01-12T00:33:53.809Z,100.00
2023-01-12T00:36:34.702Z,100.00
2023-01-12T00:39:18.965Z,100.00
2023-01-12T00:45:34.073Z,100.00
2023-01-12T00:48:21.155Z,100.00
2023-01-12T00:50:58.195Z,100.00
2023-01-12T00:53:28.848Z,100.00
2023-01-12T00:56:13.601Z,100.00
2023-01-12T00:58:53.809Z,100.00
2023-01-12T01:01:29.230Z,100.00
2023-01-12T01:04:01.995Z,100.00
2023-01-12T01:06:34.501Z,100.00
2023-01-12T01:09:17.065Z,100.00
2023-01-12T01:11:49.514Z,100.00
2023-01-12T01:14:21.477Z,100.00
2023-01-12T01:16:57.778Z,100.00
2023-01-12T01:19:34.075Z,100.00
2023-01-12T01:25:39.971Z,100.00
2023-01-12T01:31:32.339Z,100.00
2023-01-12T01:37:37.825Z,100.00
2023-01-12T01:44:09.787Z,100.00
2023-01-12T01:50:24.269Z,100.00
2023-01-12T01:56:33.653Z,100.00
2023-01-12T01:59:17.797Z,100.00
2023-01-12T02:05:02.818Z,100.00
2023-01-12T02:07:43.591Z,100.00
2023-01-12T02:10:20.903Z,100.00
2023-01-12T02:13:18.964Z,100.00
2023-01-12T02:16:33.072Z,100.00
2023-01-12T02:23:19.609Z,100.00
2023-01-12T02:26:27.685Z,100.00
2023-01-12T02:29:40.813Z,100.00
2023-01-12T02:32:52.653Z,100.00
2023-01-12T02:36:09.961Z,100.00
2023-01-12T02:45:45.699Z,100.00
2023-01-12T02:48:58.861Z,100.00
2023-01-12T02:51:56.291Z,100.00
2023-01-12T02:54:32.788Z,100.00
2023-01-12T02:57:10.672Z,100.00
2023-01-12T02:59:53.384Z,100.00
2023-01-12T03:02:34.219Z,100.00
2023-01-12T03:05:25.232Z,100.00
2023-01-12T03:08:06.584Z,100.00
2023-01-12T03:14:26.948Z,100.00
2023-01-12T03:16:57.298Z,100.00
2023-01-12T03:19:45.687Z,100.00
2023-01-12T03:22:23.194Z,100.00
2023-01-12T03:25:07.020Z,100.00
2023-01-12T03:27:56.345Z,100.00
2023-01-12T03:30:40.706Z,100.00
2023-01-12T03:37:02.177Z,100.00
2023-01-12T03:39:51.482Z,100.00
2023-01-12T03:43:04.869Z,100.00
2023-01-12T03:49:18.834Z,100.00
2023-01-12T03:51:58.908Z,100.00
2023-01-12T03:54:41.826Z,100.00
2023-01-12T03:57:20.836Z,100.00
2023-01-12T03:59:57.665Z,100.00
2023-01-12T04:02:37.603Z,100.00
2023-01-12T04:05:21.114Z,100.00
2023-01-12T04:07:59.362Z,100.00
2023-01-12T04:10:38.580Z,100.00
2023-01-12T04:13:17.843Z,100.00
2023-01-12T04:16:00.660Z,100.00
2023-01-12T04:18:34.041Z,100.00
2023-01-12T04:21:34.643Z,100.00
2023-01-12T04:24:17.475Z,100.00
2023-01-12T04:27:00.494Z,100.00
2023-01-12T04:29:39.569Z,100.00
2023-01-12T04:32:08.882Z,100.00
2023-01-12T04:34:48.355Z,100.00
2023-01-12T04:37:32.809Z,100.00
2023-01-12T04:40:08.364Z,100.00
2023-01-12T04:43:02.205Z,100.00
2023-01-12T04:49:08.154Z,100.00
2023-01-12T04:51:40.152Z,100.00
2023-01-12T04:54:18.303Z,100.00
2023-01-12T05:00:28.520Z,100.00
2023-01-12T05:03:08.492Z,100.00
2023-01-12T05:05:47.215Z,100.00
2023-01-12T05:08:40.417Z,100.00
2023-01-12T05:11:13.619Z,100.00
2023-01-12T05:13:55.954Z,100.00
2023-01-12T05:16:34.208Z,100.00
2023-01-12T05:19:14.622Z,100.00
2023-01-12T05:21:46.944Z,100.00
2023-01-12T05:24:22.536Z,100.00
2023-01-12T05:26:53.509Z,100.00
2023-01-12T05:29:41.201Z,100.00
2023-01-12T05:32:13.307Z,100.00
2023-01-12T05:34:47.206Z,100.00
2023-01-12T05:37:26.637Z,100.00
2023-01-12T05:40:07.428Z,100.00
2023-01-12T05:43:00.898Z,100.00
2023-01-12T05:45:45.678Z,100.00
2023-01-12T05:48:27.974Z,100.00
2023-01-12T05:51:09.996Z,100.00
2023-01-12T05:53:47.819Z,100.00
2023-01-12T05:56:34.898Z,100.00
2023-01-12T05:59:11.596Z,100.00
2023-01-12T06:01:49.588Z,100.00
2023-01-12T06:04:35.354Z,100.00
2023-01-12T06:07:18.478Z,100.00
2023-01-12T06:10:00.554Z,100.00
2023-01-12T06:12:52.420Z,100.00
2023-01-12T06:15:31.828Z,100.00
2023-01-12T06:18:15.957Z,100.00
2023-01-12T06:20:51.491Z,100.00
2023-01-12T06:23:35.254Z,100.00
2023-01-12T06:26:13.624Z,100.00
2023-01-12T06:28:59.388Z,100.00
2023-01-12T06:31:54.047Z,100.00
2023-01-12T06:34:37.501Z,100.00
2023-01-12T06:37:25.175Z,100.00
2023-01-12T06:40:09.006Z,100.00
2023-01-12T06:42:48.841Z,100.00
2023-01-12T06:45:27.012Z,100.00
2023-01-12T06:48:12.656Z,100.00
2023-01-12T06:50:58.521Z,100.00
2023-01-12T06:53:37.813Z,100.00
2023-01-12T06:56:14.416Z,100.00
2023-01-12T06:59:00.316Z,100.00
2023-01-12T07:01:43.301Z,100.00
2023-01-12T07:07:33.749Z,100.00
2023-01-12T07:10:21.617Z,100.00
2023-01-12T07:12:54.538Z,100.00
2023-01-12T07:15:31.222Z,100.00
2023-01-12T07:18:08.441Z,100.00
2023-01-12T07:20:47.776Z,100.00
2023-01-12T07:23:26.217Z,100.00
2023-01-12T07:26:11.106Z,100.00
2023-01-12T07:28:44.105Z,100.00
2023-01-12T07:31:19.562Z,100.00
2023-01-12T07:33:57.073Z,100.00
2023-01-12T07:36:30.315Z,100.00
2023-01-12T07:42:22.604Z,100.00
2023-01-12T07:44:57.614Z,100.00
2023-01-12T07:47:31.214Z,100.00
2023-01-12T07:50:02.336Z,100.00
2023-01-12T07:52:36.871Z,100.00
2023-01-12T07:55:08.067Z,100.00
2023-01-12T07:57:40.588Z,100.00
2023-01-12T08:00:19.035Z,100.00
2023-01-12T08:02:53.933Z,100.00
2023-01-12T08:05:27.507Z,100.00
2023-01-12T08:08:03.426Z,100.00
2023-01-12T08:10:35.376Z,100.00
2023-01-12T08:13:41.445Z,100.00
2023-01-12T08:16:22.676Z,100.00
2023-01-12T08:19:04.410Z,100.00
2023-01-12T08:21:45.452Z,100.00
2023-01-12T08:24:23.403Z,100.00
2023-01-12T08:26:59.370Z,100.00
2023-01-12T08:29:45.662Z,100.00
2023-01-12T08:32:18.904Z,100.00
2023-01-12T08:34:54.948Z,100.00
2023-01-12T08:37:36.322Z,100.00
2023-01-12T08:40:18.473Z,100.00
2023-01-12T08:42:51.618Z,100.00
2023-01-12T08:45:22.928Z,100.00
2023-01-12T08:47:52.143Z,100.00
2023-01-12T08:50:32.613Z,100.00
2023-01-12T08:53:06.444Z,100.00
2023-01-12T08:55:37.151Z,100.00
2023-01-12T08:58:13.640Z,100.00
2023-01-12T09:03:49.903Z,100.00
2023-01-12T09:06:37.473Z,100.00
2023-01-12T09:09:11.686Z,100.00
2023-01-12T09:11:48.150Z,100.00
2023-01-12T09:14:26.353Z,100.00
2023-01-12T09:17:09.608Z,100.00
2023-01-12T09:19:44.879Z,100.00
2023-01-12T09:22:19.590Z,100.00
2023-01-12T09:24:50.917Z,99.97
2023-01-12T09:27:26.217Z,98.49
2023-01-12T09:30:00.370Z,99.15
2023-01-12T09:32:36.711Z,98.58
2023-01-12T09:38:21.489Z,98.84
2023-01-12T09:41:02.893Z,99.12
2023-01-12T09:43:52.455Z,98.01
2023-01-12T09:46:57.222Z,96.83
2023-01-12T09:49:47.223Z,94.13
2023-01-12T09:52:38.900Z,94.56
2023-01-12T09:55:23.819Z,94.65
2023-01-12T09:58:29.066Z,95.35
2023-01-12T10:01:05.028Z,94.69
2023-01-12T10:03:41.074Z,95.00
2023-01-12T10:06:27.317Z,95.78
2023-01-12T10:09:06.083Z,94.82
2023-01-12T10:12:14.442Z,93.88
2023-01-12T10:15:03.188Z,93.27
2023-01-12T10:17:51.287Z,93.57
2023-01-12T10:20:52.389Z,94.17
2023-01-12T10:23:27.675Z,94.53
2023-01-12T10:26:16.696Z,93.47
2023-01-12T10:28:55.158Z,93.91
2023-01-12T10:31:31.432Z,92.70
2023-01-12T10:34:03.691Z,92.87
2023-01-12T10:36:37.499Z,93.39
2023-01-12T10:39:34.905Z,92.76
2023-01-12T10:42:44.387Z,92.19
2023-01-12T10:45:25.278Z,92.72
2023-01-12T10:47:54.227Z,92.82
2023-01-12T10:50:46.161Z,93.89
2023-01-12T10:53:26.280Z,93.50
2023-01-12T10:56:05.196Z,94.30
2023-01-12T10:58:47.038Z,94.73
2023-01-12T11:01:17.625Z,96.33
2023-01-12T11:03:48.744Z,96.12
2023-01-12T11:06:42.921Z,95.99
2023-01-12T11:09:20.096Z,96.29
2023-01-12T11:11:57.130Z,97.06
2023-01-12T11:14:38.809Z,97.26
2023-01-12T11:17:31.199Z,96.77
2023-01-12T11:20:09.524Z,96.91
2023-01-12T11:22:58.561Z,96.76
2023-01-12T11:25:43.610Z,97.77
2023-01-12T11:28:37.658Z,97.79
2023-01-12T11:32:03.843Z,98.25
2023-01-12T11:34:49.837Z,98.36
2023-01-12T11:37:27.695Z,98.35
2023-01-12T11:40:08.678Z,97.39
2023-01-12T11:43:05.547Z,98.32
2023-01-12T11:46:02.367Z,97.85
2023-01-12T11:48:52.099Z,97.62
2023-01-12T11:58:15.949Z,98.38
2023-01-12T12:01:08.032Z,98.31
2023-01-12T12:04:08.843Z,99.58
2023-01-12T12:07:08.926Z,99.61
2023-01-12T12:10:04.939Z,100.00
2023-01-12T12:12:58.335Z,99.77
2023-01-12T12:15:51.002Z,98.89
2023-01-12T12:18:33.588Z,99.08
2023-01-12T12:21:40.590Z,99.50
2023-01-12T12:24:47.406Z,99.86
2023-01-12T12:27:45.413Z,99.77
2023-01-12T12:30:58.315Z,100.00
2023-01-12T12:33:54.383Z,100.00
2023-01-12T12:36:48.143Z,100.00
2023-01-12T12:39:40.174Z,99.75
2023-01-12T12:42:41.549Z,100.00
2023-01-12T12:45:42.399Z,100.00
2023-01-12T12:48:40.250Z,100.00
2023-01-12T12:51:17.728Z,100.00
2023-01-12T12:53:57.392Z,100.00
2023-01-12T12:56:35.003Z,100.00
2023-01-12T12:59:08.237Z,99.95
2023-01-12T13:01:43.798Z,100.00
2023-01-12T13:04:14.820Z,100.00
2023-01-12T13:06:50.505Z,100.00
2023-01-12T13:09:17.964Z,100.00
2023-01-12T13:12:21.209Z,100.00
2023-01-12T13:15:22.711Z,100.00
2023-01-12T13:17:55.961Z,100.00
2023-01-12T13:20:55.379Z,100.00
2023-01-12T13:23:54.966Z,100.00
2023-01-12T13:26:46.796Z,100.00
2023-01-12T13:29:34.024Z,100.00
2023-01-12T13:32:34.530Z,100.00
2023-01-12T13:35:10.913Z,100.00
2023-01-12T13:37:54.425Z,100.00
2023-01-12T13:40:30.509Z,100.00
2023-01-12T13:43:21.799Z,100.00
2023-01-12T13:46:17.247Z,100.00
2023-01-12T13:48:52.401Z,100.00
2023-01-12T13:51:49.098Z,100.00
2023-01-12T13:54:28.437Z,99.83
2023-01-12T13:57:23.494Z,96.14
2023-01-12T14:00:21.298Z,97.25
2023-01-12T14:02:59.194Z,97.33
2023-01-12T14:06:07.684Z,97.46
2023-01-12T14:09:37.033Z,97.40
2023-01-12T14:12:35.562Z,97.88
2023-01-12T14:16:05.819Z,97.62
2023-01-12T14:18:47.510Z,98.13
2023-01-12T14:21:29.382Z,96.89
2023-01-12T14:24:25.378Z,97.53
2023-01-12T14:27:22.007Z,97.60
2023-01-12T14:29:54.379Z,98.11
2023-01-12T14:32:35.520Z,98.93
2023-01-12T14:35:12.561Z,99.42
2023-01-12T14:37:48.263Z,99.68
2023-01-12T14:40:39.508Z,100.00
2023-01-12T14:43:36.625Z,100.00
2023-01-12T14:46:26.023Z,100.00
2023-01-12T14:49:12.653Z,100.00
2023-01-12T14:52:07.770Z,100.00
2023-01-12T14:55:17.843Z,100.00
2023-01-12T14:58:11.293Z,100.00
2023-01-12T15:03:49.151Z,100.00
2023-01-12T15:06:30.676Z,100.00
2023-01-12T15:09:05.073Z,100.00
2023-01-12T15:11:44.442Z,100.00
2023-01-12T15:14:35.186Z,100.00
2023-01-12T15:17:30.682Z,100.00
2023-01-12T15:20:23.469Z,100.00
2023-01-12T15:26:39.027Z,100.00
2023-01-12T15:29:22.453Z,100.00
2023-01-12T15:32:01.404Z,100.00
2023-01-12T15:34:48.013Z,100.00
2023-01-12T15:37:20.362Z,100.00
2023-01-12T15:39:55.145Z,100.00
2023-01-12T15:42:30.960Z,100.00
2023-01-12T15:45:47.698Z,100.00
2023-01-12T15:48:30.274Z,100.00
2023-01-12T15:55:00.590Z,100.00
2023-01-12T16:00:31.131Z,100.00
2023-01-12T16:10:05.719Z,100.00
2023-01-12T16:12:50.715Z,100.00
2023-01-12T16:15:36.957Z,100.00
2023-01-12T16:21:55.414Z,100.00
2023-01-12T16:28:09.245Z,100.00
2023-01-12T16:30:53.756Z,100.00
2023-01-12T16:33:31.759Z,100.00
2023-01-12T16:36:13.005Z,100.00
2023-01-12T16:38:49.567Z,100.00
2023-01-12T16:41:24.493Z,100.00
2023-01-12T16:44:02.461Z,100.00
2023-01-12T16:46:43.633Z,100.00
2023-01-12T16:49:21.359Z,100.00
2023-01-12T16:52:02.362Z,100.00
2023-01-12T16:54:34.496Z,100.00
2023-01-12T16:57:28.729Z,100.00
2023-01-12T17:00:13.611Z,100.00
2023-01-12T17:03:01.401Z,100.00
2023-01-12T17:05:54.143Z,100.00
2023-01-12T17:08:37.484Z,100.00
2023-01-12T17:11:16.427Z,100.00
2023-01-12T17:14:05.357Z,100.00
2023-01-12T17:16:58.907Z,100.00
2023-01-12T17:23:06.292Z,100.00
2023-01-12T17:29:34.263Z,100.00
2023-01-12T17:35:46.520Z,100.00
2023-01-12T17:38:29.961Z,100.00
2023-01-12T17:44:43.743Z,100.00
2023-01-12T17:47:20.660Z,100.00
2023-01-12T17:49:58.892Z,100.00
2023-01-12T17:52:38.351Z,100.00
2023-01-12T17:55:14.513Z,100.00
2023-01-12T18:01:19.184Z,100.00
2023-01-12T18:04:13.317Z,100.00
2023-01-12T18:06:48.831Z,100.00
2023-01-12T18:09:36.919Z,100.00
2023-01-12T18:12:10.524Z,100.00
2023-01-12T18:14:55.764Z,100.00
2023-01-12T18:17:32.184Z,100.00
2023-01-12T18:23:40.818Z,100.00
2023-01-12T18:29:33.999Z,100.00
2023-01-12T18:35:51.986Z,100.00
2023-01-12T18:38:30.472Z,100.00
2023-01-12T18:41:30.086Z,100.00
2023-01-12T18:44:10.514Z,100.00
2023-01-12T18:47:04.874Z,100.00
2023-01-12T18:49:42.300Z,100.00
2023-01-12T18:52:40.139Z,100.00
2023-01-12T18:55:14.676Z,100.00
2023-01-12T18:57:52.809Z,100.00
2023-01-12T19:00:34.165Z,100.00
2023-01-12T19:03:10.929Z,100.00
2023-01-12T19:06:02.833Z,100.00
2023-01-12T19:08:53.763Z,100.00
2023-01-12T19:11:33.049Z,100.00
2023-01-12T19:14:27.081Z,100.00
2023-01-12T19:17:21.017Z,100.00
2023-01-12T19:27:21.199Z,100.00
2023-01-12T19:33:18.561Z,100.00
2023-01-12T19:35:48.791Z,100.00
2023-01-12T19:41:38.607Z,100.00
2023-01-12T19:44:14.580Z,100.00
2023-01-12T19:46:58.952Z,100.00
2023-01-12T19:49:35.471Z,100.00
2023-01-12T19:52:14.214Z,100.00
2023-01-12T19:54:45.972Z,100.00
2023-01-12T19:57:25.278Z,100.00
2023-01-12T20:00:00.045Z,100.00
2023-01-12T20:02:38.663Z,100.00
2023-01-12T20:05:35.526Z,100.00
2023-01-12T20:08:18.347Z,100.00
2023-01-12T20:11:04.037Z,100.00
2023-01-12T20:17:27.471Z,100.00
2023-01-12T20:27:12.925Z,100.00
2023-01-12T20:33:12.677Z,100.00
2023-01-12T20:35:54.013Z,100.00
2023-01-12T20:38:27.961Z,100.00
2023-01-12T20:41:08.799Z,100.00
2023-01-12T20:43:44.280Z,100.00
2023-01-12T20:46:24.941Z,100.00
2023-01-12T20:49:07.248Z,100.00
2023-01-12T20:51:44.724Z,100.00
2023-01-12T20:54:23.847Z,100.00
2023-01-12T20:57:09.655Z,100.00
2023-01-12T20:59:49.832Z,100.00
2023-01-12T21:02:27.492Z,100.00
2023-01-12T21:05:07.649Z,100.00
2023-01-12T21:07:56.988Z,100.00
2023-01-12T21:10:45.280Z,100.00
2023-01-12T21:13:26.256Z,100.00
2023-01-12T21:16:11.424Z,100.00
2023-01-12T21:18:59.127Z,100.00
2023-01-12T21:21:41.567Z,100.00
2023-01-12T21:27:53.159Z,100.00
2023-01-12T21:33:54.173Z,100.00
2023-01-12T21:36:35.536Z,100.00
2023-01-12T21:39:09.307Z,100.00
2023-01-12T21:42:07.917Z,100.00
2023-01-12T21:44:53.200Z,100.00
2023-01-12T21:47:40.205Z,100.00
2023-01-12T21:50:30.656Z,100.00
2023-01-12T21:53:15.553Z,100.00
2023-01-12T21:56:00.251Z,100.00
2023-01-12T22:02:14.676Z,100.00
2023-01-12T22:05:00.125Z,100.00
2023-01-12T22:07:47.183Z,100.00
2023-01-12T22:10:32.977Z,100.00
2023-01-12T22:13:14.010Z,100.00
2023-01-12T22:16:02.720Z,100.00
2023-01-12T22:18:41.664Z,100.00
2023-01-12T22:28:27.863Z,100.00
2023-01-12T22:31:21.369Z,100.00
2023-01-12T22:34:08.273Z,100.00
2023-01-12T22:36:47.872Z,100.00
2023-01-12T22:39:20.728Z,100.00
2023-01-12T22:42:00.352Z,100.00
2023-01-12T22:44:38.823Z,100.00
2023-01-12T22:47:24.351Z,100.00
2023-01-12T22:50:03.742Z,100.00
2023-01-12T22:56:18.988Z,100.00
2023-01-12T23:02:51.022Z,100.00
2023-01-12T23:05:31.240Z,100.00
2023-01-12T23:08:12.297Z,100.00
2023-01-12T23:14:15.713Z,100.00
2023-01-12T23:16:59.326Z,100.00
2023-01-12T23:19:37.308Z,100.00
2023-01-12T23:22:16.378Z,100.00
2023-01-12T23:24:55.254Z,100.00
2023-01-12T23:27:39.779Z,100.00
2023-01-12T23:30:20.014Z,100.00
2023-01-12T23:33:00.835Z,100.00
2023-01-12T23:35:48.576Z,100.00
2023-01-12T23:38:26.568Z,100.00
2023-01-12T23:40:59.820Z,100.00
2023-01-12T23:43:40.441Z,100.00
2023-01-12T23:49:16.138Z,100.00
2023-01-12T23:51:53.659Z,100.00
2023-01-12T23:54:28.476Z,100.00
2023-01-12T23:57:27.334Z,100.00
